createdAt,value
2022-09-06T00:00:00.000Z,9.58
2022-09-06T00:15:00.000Z,9.67
2022-09-06T00:30:00.000Z,11.24
2022-09-06T00:45:00.000Z,12.68
2022-09-06T01:00:00.000Z,11.62
2022-09-06T01:15:00.000Z,10.31
2022-09-06T01:30:00.000Z,10.72
2022-09-06T01:45:00.000Z,10.47
2022-09-06T02:00:00.000Z,10.22
2022-09-06T02:15:00.000Z,10.2
2022-09-06T02:30:00.000Z,12.12
2022-09-06T02:45:00.000Z,11.6
2022-09-06T03:00:00.000Z,10.56
2022-09-06T03:15:00.000Z,10.47
2022-09-06T03:30:00.000Z,10.48
2022-09-06T03:45:00.000Z,11.64
2022-09-06T04:00:00.000Z,12.14
2022-09-06T04:15:00.000Z,14.51
2022-09-06T04:30:00.000Z,12.94
2022-09-06T04:45:00.000Z,14.45
2022-09-06T05:00:00.000Z,13.05
2022-09-06T05:15:00.000Z,12.25
2022-09-06T05:30:00.000Z,11.06
2022-09-06T05:45:00.000Z,8.93
2022-09-06T06:00:00.000Z,7.48
2022-09-06T06:15:00.000Z,7.66
2022-09-06T06:30:00.000Z,7.2
2022-09-06T06:45:00.000Z,6.95
2022-09-06T07:00:00.000Z,5.93
2022-09-06T07:15:00.000Z,5.47
2022-09-06T07:30:00.000Z,5.34
2022-09-06T07:45:00.000Z,4.85
2022-09-06T08:00:00.000Z,6.28
2022-09-06T08:15:00.000Z,6.79
2022-09-06T08:30:00.000Z,6.87
2022-09-06T08:45:00.000Z,6.86
2022-09-06T09:00:00.000Z,7.78
2022-09-06T09:30:00.000Z,7.24
2022-09-06T09:45:00.000Z,7.2
2022-09-06T10:00:00.000Z,6.76
2022-09-06T10:15:00.000Z,6.4
2022-09-06T10:30:00.000Z,6.29
2022-09-06T10:45:00.000Z,6.19
2022-09-06T11:00:00.000Z,5.19
2022-09-06T11:15:00.000Z,6.06
2022-09-06T11:30:00.000Z,6.13
2022-09-06T11:45:00.000Z,6.34
2022-09-06T12:00:00.000Z,5.89
2022-09-06T12:15:00.000Z,4.44
2022-09-06T12:30:00.000Z,5.04
2022-09-06T12:45:00.000Z,5.28
2022-09-06T13:00:00.000Z,4.94
2022-09-06T13:15:00.000Z,4.74
2022-09-06T13:30:00.000Z,4.59
2022-09-06T13:45:00.000Z,5.07
2022-09-06T14:00:00.000Z,4.93
2022-09-06T14:15:00.000Z,4.95
2022-09-06T14:30:00.000Z,6.87
2022-09-06T14:45:00.000Z,6.54
2022-09-06T15:00:00.000Z,5.38
2022-09-06T15:15:00.000Z,5.26
2022-09-06T15:30:00.000Z,5.72
2022-09-06T15:45:00.000Z,6.16
2022-09-06T16:00:00.000Z,6.18
2022-09-06T16:15:00.000Z,4.88
2022-09-06T16:30:00.000Z,6.27
2022-09-06T16:45:00.000Z,6.07
2022-09-06T17:00:00.000Z,5.91
2022-09-06T17:15:00.000Z,5.53
2022-09-06T17:30:00.000Z,6.15
2022-09-06T17:45:00.000Z,7.31
2022-09-06T18:00:00.000Z,7.51
2022-09-06T18:15:00.000Z,8.59
2022-09-06T18:30:00.000Z,8.34
2022-09-06T18:45:00.000Z,7.66
2022-09-06T19:00:00.000Z,7.66
2022-09-06T19:15:00.000Z,7.62
2022-09-06T19:30:00.000Z,8.75
2022-09-06T19:45:00.000Z,7.73
2022-09-06T20:00:00.000Z,7.39
2022-09-06T20:15:00.000Z,7.09
2022-09-06T20:30:00.000Z,7.26
2022-09-06T20:45:00.000Z,7.14
2022-09-06T21:00:00.000Z,7.26
2022-09-06T21:15:00.000Z,7.35
2022-09-06T21:30:00.000Z,7.22
2022-09-06T21:45:00.000Z,8.21
2022-09-06T22:00:00.000Z,7.29
2022-09-06T22:15:00.000Z,6.39
2022-09-06T22:30:00.000Z,6.82
2022-09-06T22:45:00.000Z,6.41
2022-09-06T23:00:00.000Z,6.69
2022-09-06T23:15:00.000Z,6.86
2022-09-06T23:30:00.000Z,6.19
2022-09-06T23:45:00.000Z,5.6
